Overview Statistics Trail Chart Weather Telemetry Raw packets
 

This is the latest recevied weather packets stored in our database for station/object K5OLV. If no packets are shown the sender has not sent any weather packets the latest 10 day(s).

<< 60 61 62 63 64 65 66 >>
Time Temp. Humidity Pressure Rain* Wind** Luminosity Snow
1788202471 30.56° C 64% 1019.2 hPa 0 mm - 724 W/m² -
1788202170 31.11° C 65% 1019.4 hPa 0 mm - 729 W/m² -
1788201866 30.56° C 67% 1019.4 hPa 0 mm - 674 W/m² -
1788201561 31.11° C 65% 1019.4 hPa 0 mm - 693 W/m² -
1788201260 29.44° C 69% 1019.6 hPa 0 mm - 672 W/m² -
1788200960 28.33° C 78% 1019.7 hPa 0 mm - 583 W/m² -
1788200655 28.89° C 76% 1019.7 hPa 0 mm - 141 W/m² -
1788200350 29.44° C 74% 1019.8 hPa 0 mm - 157 W/m² -
1788200046 28.89° C 72% 1019.8 hPa 0 mm - 128 W/m² -
1788199740 29.44° C 70% 1019.4 hPa 0 mm - 132 W/m² -
1788199434 29.44° C 68% 1019.6 hPa 0 mm - 159 W/m² -
1788199134 29.44° C 67% 1019.8 hPa 0 mm - 179 W/m² -
1788198830 30° C 68% 1019.9 hPa 0 mm - 743 W/m² -
1788198526 31.67° C 64% 1019.8 hPa 0 mm - 448 W/m² -
1788198222 32.22° C 59% 1020 hPa 0 mm - 769 W/m² -
1788197920 31.67° C 61% 1020.1 hPa 0 mm - 792 W/m² -
1788197615 31.67° C 62% 1019.9 hPa 0 mm - 826 W/m² -
1788197310 30.56° C 66% 1020.1 hPa 0 mm - 851 W/m² -
1788197005 29.44° C 71% 1020.1 hPa 0 mm - 208 W/m² -
1788196705 29.44° C 67% 1020 hPa 0 mm - 204 W/m² -
1788196401 28.89° C 69% 1020.1 hPa 0 mm - 759 W/m² -
1788196098 28.89° C 68% 1020 hPa 0 mm - 283 W/m² -
1788195794 28.89° C 72% 1020.1 hPa 0 mm - 737 W/m² -
1788195490 28.89° C 69% 1020.2 hPa 0 mm - 742 W/m² -
1788195187 28.89° C 69% 1020.3 hPa 0 mm - 757 W/m² -

* Rain latest hour (hover to see other rain measurements)
** Current wind speed in m/s (hover to see current wind gust speed)